Time;durP1;ratioP1;P1;durP2;ratioP2;P2;SDS_P1;SDS_P2;PMS_P1;PMS_P2;Temp;Humidity;BMP_temperature;BMP_pressure;BME280_temperature;BME280_humidity;BME280_pressure;Samples;Min_cycle;Max_cycle;Signal;HPM_P1;HPM_P2
2022/10/23 00:01:36;;;;;;;;;;;11.20;99.90;;;;;;5126943;27;1902;-66
2022/10/23 00:04:04;;;;;;;;;;;11.20;99.90;;;;;;5126563;27;1433;-66
2022/10/23 00:06:30;;;;;;;;;;;11.20;99.90;;;;;;5124506;27;1197;-66
2022/10/23 00:08:56;;;;;;;;;;;11.20;99.90;;;;;;5127699;27;1329;-66
2022/10/23 00:11:23;;;;;;;;;;;11.20;99.90;;;;;;5127218;27;1193;-65
2022/10/23 00:13:50;;;;;;;;;;;11.20;99.90;;;;;;5127259;27;1294;-65
2022/10/23 00:16:15;;;;;;;;;;;11.20;99.90;;;;;;5126960;27;1173;-66
2022/10/23 00:18:41;;;;;;;;;;;11.10;99.90;;;;;;5127374;27;1230;-66
2022/10/23 00:21:08;;;;;;;;;;;11.10;99.90;;;;;;5127347;27;1905;-65
2022/10/23 00:23:33;;;;;;;;;;;11.10;99.90;;;;;;5124712;27;1095;-66
2022/10/23 00:25:59;;;;;;;;;;;11.10;99.90;;;;;;5128007;27;1201;-65
2022/10/23 00:28:25;;;;;;;;;;;11.10;99.90;;;;;;5127201;27;1177;-66
2022/10/23 00:30:51;;;;;;;;;;;11.00;99.90;;;;;;5128583;27;1193;-65
2022/10/23 00:33:17;;;;;;;;;;;11.00;99.90;;;;;;5126554;27;1165;-65
2022/10/23 00:35:42;;;;;;;;;;;10.90;99.90;;;;;;5116330;27;1318;-65
2022/10/23 00:38:08;;;;;;;;;;;10.90;99.90;;;;;;5113907;27;1177;-65
2022/10/23 00:40:34;;;;;;;;;;;10.80;99.90;;;;;;5127543;27;1196;-65
2022/10/23 00:43:00;;;;;;;;;;;10.80;99.90;;;;;;5127291;27;1999;-65
2022/10/23 00:45:30;;;;;;;;;;;10.70;99.90;;;;;;5124679;27;1262;-65
2022/10/23 00:47:55;;;;;;;;;;;10.60;99.90;;;;;;5104720;28;1437;-65
2022/10/23 00:50:23;;;;;;;;;;;10.60;99.90;;;;;;5113925;27;1113;-66
2022/10/23 00:52:50;;;;;;;;;;;10.60;99.90;;;;;;5113948;27;1232;-66
2022/10/23 00:55:16;;;;;;;;;;;10.50;99.90;;;;;;5109258;27;1300;-65
2022/10/23 00:57:42;;;;;;;;;;;10.50;99.90;;;;;;5117136;27;1178;-66
2022/10/23 01:00:11;;;;;;;;;;;10.50;99.90;;;;;;5110757;27;1329;-66
2022/10/23 01:02:37;;;;;;;;;;;10.50;99.90;;;;;;5113964;27;1968;-66
2022/10/23 01:05:03;;;;;;;;;;;10.40;99.90;;;;;;5113332;27;1209;-66
2022/10/23 01:07:29;;;;;;;;;;;10.40;99.90;;;;;;5113519;27;1228;-66
2022/10/23 01:10:04;;;;;;;;;;;10.40;99.90;;;;;;5116063;27;1181;-66
2022/10/23 01:12:36;;;;;;;;;;;10.40;99.90;;;;;;5114728;27;1134;-66
2022/10/23 01:15:06;;;;;;;;;;;10.40;99.90;;;;;;5104328;27;1578;-65
2022/10/23 01:17:32;;;;;;;;;;;10.40;99.90;;;;;;5116872;27;1188;-65
2022/10/23 01:19:58;;;;;;;;;;;10.40;99.90;;;;;;5110266;27;1263;-65
2022/10/23 01:22:23;;;;;;;;;;;10.40;99.90;;;;;;5074171;28;1976;-65
2022/10/23 01:24:55;;;;;;;;;;;10.50;99.90;;;;;;5100207;28;1142;-65
2022/10/23 01:27:22;;;;;;;;;;;10.50;99.90;;;;;;5087579;28;1094;-66
2022/10/23 01:29:53;;;;;;;;;;;10.60;99.90;;;;;;5114321;27;1338;-65
2022/10/23 01:32:39;;;;;;;;;;;10.60;99.90;;;;;;5113776;27;1089;-65
2022/10/23 01:35:05;;;;;;;;;;;10.60;99.90;;;;;;5116538;28;1137;-65
2022/10/23 01:37:34;;;;;;;;;;;10.70;99.90;;;;;;5096793;28;1126;-65
2022/10/23 01:40:04;;;;;;;;;;;10.70;99.90;;;;;;5095763;28;1226;-65
2022/10/23 01:42:35;;;;;;;;;;;10.70;99.90;;;;;;5098545;28;1905;-65
2022/10/23 01:45:05;;;;;;;;;;;10.70;99.90;;;;;;5102601;28;1185;-65
2022/10/23 01:47:40;;;;;;;;;;;10.80;99.90;;;;;;5102372;28;1103;-65
2022/10/23 01:50:09;;;;;;;;;;;10.80;99.90;;;;;;5116397;28;1156;-65
2022/10/23 01:52:36;;;;;;;;;;;10.80;99.90;;;;;;5095366;28;1189;-65
2022/10/23 01:55:05;;;;;;;;;;;10.80;99.90;;;;;;5095517;28;1319;-66
2022/10/23 01:57:33;;;;;;;;;;;10.80;99.90;;;;;;5095837;28;1160;-65
2022/10/23 02:00:03;;;;;;;;;;;10.80;99.90;;;;;;5094139;28;1209;-65
2022/10/23 02:02:31;;;;;;;;;;;10.80;99.90;;;;;;5095849;28;1910;-65
2022/10/23 02:05:00;;;;;;;;;;;10.80;99.90;;;;;;5116894;28;1209;-66
2022/10/23 02:07:27;;;;;;;;;;;10.80;99.90;;;;;;5111827;28;1197;-66
2022/10/23 02:09:53;;;;;;;;;;;10.70;99.90;;;;;;5090257;28;1373;-65
2022/10/23 02:12:28;;;;;;;;;;;10.70;99.90;;;;;;5098114;28;1209;-65
2022/10/23 02:14:56;;;;;;;;;;;10.70;99.90;;;;;;5114047;27;1271;-65
2022/10/23 02:17:30;;;;;;;;;;;10.70;99.90;;;;;;5117358;27;1382;-65
2022/10/23 02:20:01;;;;;;;;;;;10.70;99.90;;;;;;5116677;27;1394;-65
2022/10/23 02:22:29;;;;;;;;;;;10.70;99.90;;;;;;5114535;27;1906;-65
2022/10/23 02:25:03;;;;;;;;;;;10.60;99.90;;;;;;5120368;27;1116;-65
2022/10/23 02:27:35;;;;;;;;;;;10.60;99.90;;;;;;5102598;27;1125;-65
2022/10/23 02:30:03;;;;;;;;;;;10.50;99.90;;;;;;5116989;27;1370;-65
2022/10/23 02:32:31;;;;;;;;;;;10.40;99.90;;;;;;5100911;27;1209;-65
2022/10/23 02:34:56;;;;;;;;;;;10.30;99.90;;;;;;5117864;27;1133;-65
2022/10/23 02:37:24;;;;;;;;;;;10.30;99.90;;;;;;5102949;27;1237;-65
2022/10/23 02:39:50;;;;;;;;;;;10.30;99.90;;;;;;5119981;27;1240;-65
2022/10/23 02:42:20;;;;;;;;;;;10.30;99.90;;;;;;5119880;27;1940;-65
2022/10/23 02:44:54;;;;;;;;;;;10.40;99.90;;;;;;5107032;27;1815;-65
2022/10/23 02:47:26;;;;;;;;;;;10.40;99.90;;;;;;5096989;27;1182;-65
2022/10/23 02:50:11;;;;;;;;;;;10.40;99.90;;;;;;5118878;27;1256;-65
2022/10/23 02:52:44;;;;;;;;;;;10.40;99.90;;;;;;5117930;27;1191;-65
2022/10/23 02:55:19;;;;;;;;;;;10.40;99.90;;;;;;5131838;27;1082;-65
2022/10/23 02:57:51;;;;;;;;;;;10.30;99.90;;;;;;5128646;27;1336;-65
2022/10/23 03:00:18;;;;;;;;;;;10.30;99.90;;;;;;5122138;27;1276;-65
2022/10/23 03:02:50;;;;;;;;;;;10.20;99.90;;;;;;5121462;27;1913;-65
2022/10/23 03:05:19;;;;;;;;;;;10.10;99.90;;;;;;5132220;27;1342;-65
2022/10/23 03:07:44;;;;;;;;;;;10.10;99.90;;;;;;5115704;27;1267;-65
2022/10/23 03:10:10;;;;;;;;;;;10.10;99.90;;;;;;5137878;27;1109;-65
2022/10/23 03:12:36;;;;;;;;;;;10.10;99.90;;;;;;5118349;27;1291;-65
2022/10/23 03:15:04;;;;;;;;;;;10.10;99.90;;;;;;5133154;27;1286;-65
2022/10/23 03:17:30;;;;;;;;;;;10.10;99.90;;;;;;5122545;27;1204;-65
2022/10/23 03:19:58;;;;;;;;;;;10.10;99.90;;;;;;5136936;27;1196;-65
2022/10/23 03:22:23;;;;;;;;;;;10.20;99.90;;;;;;5104686;27;2032;-65
2022/10/23 03:24:49;;;;;;;;;;;10.20;99.90;;;;;;5120441;27;1200;-65
2022/10/23 03:27:15;;;;;;;;;;;10.20;99.90;;;;;;5134448;27;1144;-64
2022/10/23 03:29:41;;;;;;;;;;;10.30;99.90;;;;;;5136515;27;1396;-65
2022/10/23 03:32:06;;;;;;;;;;;10.30;99.90;;;;;;5114091;27;1219;-65
2022/10/23 03:34:33;;;;;;;;;;;10.30;99.90;;;;;;5127204;27;1414;-65
2022/10/23 03:37:02;;;;;;;;;;;10.30;99.90;;;;;;5137542;27;1347;-65
2022/10/23 03:39:28;;;;;;;;;;;10.20;99.90;;;;;;5137216;27;1124;-65
2022/10/23 03:41:53;;;;;;;;;;;10.20;99.90;;;;;;5136805;27;1946;-65
2022/10/23 03:44:20;;;;;;;;;;;10.20;99.90;;;;;;5115595;27;1340;-65
2022/10/23 03:46:45;;;;;;;;;;;10.10;99.90;;;;;;5138136;27;1647;-64
2022/10/23 03:49:11;;;;;;;;;;;10.10;99.90;;;;;;5132879;27;1255;-65
2022/10/23 03:51:40;;;;;;;;;;;10.10;99.90;;;;;;5128491;27;1247;-65
2022/10/23 03:54:06;;;;;;;;;;;10.10;99.90;;;;;;5081025;28;1269;-65
2022/10/23 03:56:32;;;;;;;;;;;10.20;99.90;;;;;;5110713;27;1147;-65
2022/10/23 03:58:58;;;;;;;;;;;10.20;99.90;;;;;;5113485;27;1155;-65
2022/10/23 04:01:26;;;;;;;;;;;10.20;99.90;;;;;;5112315;27;1914;-64
2022/10/23 04:03:51;;;;;;;;;;;10.20;99.90;;;;;;5095913;27;1092;-64
2022/10/23 04:06:21;;;;;;;;;;;10.20;99.90;;;;;;5113311;27;1127;-64
2022/10/23 04:08:47;;;;;;;;;;;10.20;99.90;;;;;;5094672;27;1390;-65
2022/10/23 04:11:16;;;;;;;;;;;10.30;99.90;;;;;;5112033;27;1209;-65
2022/10/23 04:13:44;;;;;;;;;;;10.20;99.90;;;;;;5112777;27;1428;-65
2022/10/23 04:16:10;;;;;;;;;;;10.20;99.90;;;;;;5130774;27;1104;-65
2022/10/23 04:18:36;;;;;;;;;;;10.20;99.90;;;;;;5098878;27;1160;-64
2022/10/23 04:21:02;;;;;;;;;;;10.20;99.90;;;;;;5121112;27;1970;-65
2022/10/23 04:23:27;;;;;;;;;;;10.10;99.90;;;;;;5112053;27;1199;-65
2022/10/23 04:25:56;;;;;;;;;;;10.10;99.90;;;;;;5112487;27;1182;-65
2022/10/23 04:28:23;;;;;;;;;;;10.00;99.90;;;;;;5117508;27;1107;-65
2022/10/23 04:30:49;;;;;;;;;;;10.00;99.90;;;;;;5095193;27;1710;-65
2022/10/23 04:33:15;;;;;;;;;;;10.00;99.90;;;;;;5131131;27;1116;-65
2022/10/23 04:35:41;;;;;;;;;;;9.90;99.90;;;;;;5095640;27;1279;-65
2022/10/23 04:38:06;;;;;;;;;;;9.90;99.90;;;;;;5123745;27;1170;-65
2022/10/23 04:40:32;;;;;;;;;;;9.90;99.90;;;;;;5112310;27;1175;-65
2022/10/23 04:42:58;;;;;;;;;;;9.90;99.90;;;;;;5121721;27;1930;-65
2022/10/23 04:45:25;;;;;;;;;;;9.90;99.90;;;;;;5094137;27;1110;-65
2022/10/23 04:47:52;;;;;;;;;;;9.80;99.90;;;;;;5130459;27;1283;-64
2022/10/23 04:50:18;;;;;;;;;;;9.90;99.90;;;;;;5094747;27;1232;-65
2022/10/23 04:53:04;;;;;;;;;;;9.80;99.90;;;;;;5130090;27;1194;-65
2022/10/23 04:55:35;;;;;;;;;;;9.80;99.90;;;;;;5129557;27;1204;-64
2022/10/23 04:58:11;;;;;;;;;;;9.80;99.90;;;;;;5128751;27;1100;-65
2022/10/23 05:00:37;;;;;;;;;;;9.80;99.90;;;;;;5112310;27;1174;-64
2022/10/23 05:03:03;;;;;;;;;;;9.80;99.90;;;;;;5133549;27;1964;-64
2022/10/23 05:05:34;;;;;;;;;;;9.70;99.90;;;;;;5112545;27;1131;-64
2022/10/23 05:08:00;;;;;;;;;;;9.80;99.90;;;;;;5130211;27;1142;-65
2022/10/23 05:10:34;;;;;;;;;;;9.80;99.90;;;;;;5112226;27;1095;-64
2022/10/23 05:13:05;;;;;;;;;;;9.80;99.90;;;;;;5129133;27;1188;-64
2022/10/23 05:15:30;;;;;;;;;;;9.80;99.90;;;;;;5111887;27;1199;-64
2022/10/23 05:17:58;;;;;;;;;;;9.80;99.90;;;;;;5111607;27;1092;-64
2022/10/23 05:20:27;;;;;;;;;;;9.80;99.90;;;;;;5129288;27;1109;-64
2022/10/23 05:22:54;;;;;;;;;;;9.80;99.90;;;;;;5111807;28;1984;-64
2022/10/23 05:25:23;;;;;;;;;;;9.70;99.90;;;;;;5094283;27;1101;-65
2022/10/23 05:27:56;;;;;;;;;;;9.70;99.90;;;;;;5110551;27;1098;-64
2022/10/23 05:30:21;;;;;;;;;;;9.80;99.90;;;;;;5128864;27;1333;-64
2022/10/23 05:32:47;;;;;;;;;;;9.80;99.90;;;;;;5110797;28;1186;-65
2022/10/23 05:35:16;;;;;;;;;;;9.80;99.90;;;;;;5111897;28;1112;-64
2022/10/23 05:37:46;;;;;;;;;;;9.90;99.90;;;;;;5111491;28;1978;-64
2022/10/23 05:40:17;;;;;;;;;;;9.90;99.90;;;;;;5100226;28;1075;-64
2022/10/23 05:42:46;;;;;;;;;;;9.90;99.90;;;;;;5094280;28;1926;-65
2022/10/23 05:45:15;;;;;;;;;;;9.90;99.90;;;;;;5111714;28;1063;-65
2022/10/23 05:48:00;;;;;;;;;;;10.00;99.90;;;;;;5109835;28;1118;-64
2022/10/23 05:50:47;;;;;;;;;;;9.90;99.90;;;;;;5134044;27;1091;-64
2022/10/23 05:53:24;;;;;;;;;;;9.90;99.90;;;;;;5098238;27;1081;-64
2022/10/23 05:56:07;;;;;;;;;;;9.90;99.90;;;;;;5126939;27;1127;-65
2022/10/23 05:58:44;;;;;;;;;;;10.00;99.90;;;;;;5111504;27;1101;-64
2022/10/23 06:01:17;;;;;;;;;;;10.00;99.90;;;;;;5115040;27;1906;-65
2022/10/23 06:03:54;;;;;;;;;;;10.00;99.90;;;;;;5098117;27;1136;-65
2022/10/23 06:06:25;;;;;;;;;;;10.00;99.90;;;;;;5115103;27;1170;-65
2022/10/23 06:08:51;;;;;;;;;;;10.00;99.90;;;;;;5131666;27;1180;-65
2022/10/23 06:11:19;;;;;;;;;;;10.00;99.90;;;;;;5107869;27;1104;-64
2022/10/23 06:13:54;;;;;;;;;;;9.90;99.90;;;;;;5116676;27;1322;-65
2022/10/23 06:16:24;;;;;;;;;;;9.90;99.90;;;;;;5133968;27;1175;-65
2022/10/23 06:18:49;;;;;;;;;;;9.80;99.90;;;;;;5133467;27;1068;-65
2022/10/23 06:21:17;;;;;;;;;;;9.90;99.90;;;;;;5115234;27;1913;-64
2022/10/23 06:23:45;;;;;;;;;;;9.90;99.90;;;;;;5105843;27;1177;-65
2022/10/23 06:26:27;;;;;;;;;;;9.90;99.90;;;;;;5114361;27;1179;-65
2022/10/23 06:29:06;;;;;;;;;;;9.90;99.90;;;;;;5129393;27;1301;-65
2022/10/23 06:31:32;;;;;;;;;;;9.90;99.90;;;;;;5131817;27;1142;-64
2022/10/23 06:33:58;;;;;;;;;;;9.90;99.90;;;;;;5132884;27;1289;-64
2022/10/23 06:36:25;;;;;;;;;;;9.80;99.90;;;;;;5130983;27;1143;-64
2022/10/23 06:38:55;;;;;;;;;;;9.80;99.90;;;;;;5114670;27;1143;-64
2022/10/23 06:41:25;;;;;;;;;;;9.80;99.90;;;;;;5123257;27;1981;-65
2022/10/23 06:43:54;;;;;;;;;;;9.80;99.90;;;;;;5108298;27;1172;-65
2022/10/23 06:46:39;;;;;;;;;;;9.80;99.90;;;;;;5114388;27;1120;-64
2022/10/23 06:49:23;;;;;;;;;;;9.90;99.90;;;;;;5131885;27;1190;-64
2022/10/23 06:51:49;;;;;;;;;;;10.10;99.90;;;;;;5126421;27;1269;-64
2022/10/23 06:54:19;;;;;;;;;;;10.00;99.90;;;;;;5113510;27;1144;-64
2022/10/23 06:57:03;;;;;;;;;;;10.00;99.90;;;;;;5128840;27;1324;-65
2022/10/23 06:59:38;;;;;;;;;;;10.10;99.90;;;;;;5120093;27;1122;-65
2022/10/23 07:02:05;;;;;;;;;;;10.10;99.90;;;;;;5113572;27;1993;-65
2022/10/23 07:04:31;;;;;;;;;;;10.10;99.90;;;;;;5113786;27;1229;-64
2022/10/23 07:06:59;;;;;;;;;;;10.10;99.90;;;;;;5114919;27;1171;-65
2022/10/23 07:09:33;;;;;;;;;;;10.20;99.90;;;;;;5112715;27;1199;-65
2022/10/23 07:12:19;;;;;;;;;;;10.20;99.90;;;;;;5110861;27;1243;-65
2022/10/23 07:14:50;;;;;;;;;;;10.20;99.90;;;;;;5123267;27;1389;-64
2022/10/23 07:17:16;;;;;;;;;;;10.20;99.90;;;;;;5112912;27;1158;-64
2022/10/23 07:19:41;;;;;;;;;;;10.20;99.90;;;;;;5116094;27;2469;-65
2022/10/23 07:22:10;;;;;;;;;;;10.30;99.90;;;;;;5109800;27;4105;-64
2022/10/23 07:24:39;;;;;;;;;;;10.40;99.90;;;;;;5129110;27;1256;-65
2022/10/23 07:27:15;;;;;;;;;;;10.50;99.90;;;;;;5112906;27;3727;-65
2022/10/23 07:29:42;;;;;;;;;;;10.60;99.90;;;;;;5121239;27;1366;-65
2022/10/23 07:32:08;;;;;;;;;;;10.70;99.90;;;;;;5130349;27;977;-65
2022/10/23 07:34:35;;;;;;;;;;;10.80;99.90;;;;;;5130687;27;1154;-65
2022/10/23 07:37:21;;;;;;;;;;;10.80;99.90;;;;;;5131462;27;1096;-65
2022/10/23 07:39:47;;;;;;;;;;;10.90;99.90;;;;;;5130090;27;3976;-65
2022/10/23 07:42:12;;;;;;;;;;;11.00;99.90;;;;;;5129837;27;1971;-65
2022/10/23 07:44:39;;;;;;;;;;;10.40;99.90;;;;;;5112393;27;1196;-65
2022/10/23 07:47:05;;;;;;;;;;;11.10;99.90;;;;;;5110854;27;1230;-65
2022/10/23 07:49:32;;;;;;;;;;;11.10;99.90;;;;;;5129766;27;1354;-65
2022/10/23 07:51:58;;;;;;;;;;;11.20;99.90;;;;;;5125329;27;1111;-65
2022/10/23 07:54:29;;;;;;;;;;;11.30;99.90;;;;;;5094062;27;1279;-65
2022/10/23 07:57:15;;;;;;;;;;;11.20;99.90;;;;;;5126893;27;1211;-65
2022/10/23 07:59:47;;;;;;;;;;;11.40;99.90;;;;;;5112519;27;1138;-65
2022/10/23 08:02:19;;;;;;;;;;;11.40;99.90;;;;;;5112066;27;1901;-65
2022/10/23 08:04:47;;;;;;;;;;;11.50;99.90;;;;;;5128024;27;1154;-65
2022/10/23 08:07:23;;;;;;;;;;;11.50;99.90;;;;;;5113344;27;1110;-65
2022/10/23 08:09:52;;;;;;;;;;;11.60;99.90;;;;;;5111145;27;1182;-64
2022/10/23 08:12:18;;;;;;;;;;;11.60;99.90;;;;;;5126512;27;1108;-65
2022/10/23 08:14:44;;;;;;;;;;;11.70;99.90;;;;;;5109411;27;1136;-65
2022/10/23 08:17:11;;;;;;;;;;;11.70;99.90;;;;;;5129135;27;1356;-65
2022/10/23 08:19:56;;;;;;;;;;;11.80;99.90;;;;;;5130000;27;1331;-65
2022/10/23 08:22:25;;;;;;;;;;;11.90;99.90;;;;;;5112078;27;1913;-65
2022/10/23 08:24:51;;;;;;;;;;;12.00;99.90;;;;;;5112287;27;1383;-65
2022/10/23 08:27:16;;;;;;;;;;;12.00;99.90;;;;;;5130934;27;1129;-65
2022/10/23 08:29:45;;;;;;;;;;;12.10;99.90;;;;;;5119748;27;1315;-65
2022/10/23 08:32:11;;;;;;;;;;;12.20;99.90;;;;;;5112614;27;1163;-65
2022/10/23 08:34:53;;;;;;;;;;;12.30;99.90;;;;;;5130728;27;1151;-65
2022/10/23 08:37:20;;;;;;;;;;;12.40;99.90;;;;;;5111936;27;2015;-65
2022/10/23 08:39:46;;;;;;;;;;;12.50;99.90;;;;;;5130400;27;1159;-65
2022/10/23 08:42:18;;;;;;;;;;;12.60;99.90;;;;;;5112621;27;1967;-65
2022/10/23 08:44:48;;;;;;;;;;;12.60;99.90;;;;;;5111433;27;1176;-65
2022/10/23 08:47:25;;;;;;;;;;;12.80;99.90;;;;;;5122119;27;1236;-66
2022/10/23 08:50:27;;;;;;;;;;;12.90;99.90;;;;;;5126292;27;1183;-66
2022/10/23 08:52:56;;;;;;;;;;;13.00;99.90;;;;;;5129486;27;1125;-66
2022/10/23 08:55:22;;;;;;;;;;;13.00;99.90;;;;;;5111425;27;1052;-65
2022/10/23 08:57:57;;;;;;;;;;;13.10;99.90;;;;;;5111325;27;1227;-65
2022/10/23 09:00:22;;;;;;;;;;;13.10;99.90;;;;;;5117778;27;3682;-65
2022/10/23 09:02:49;;;;;;;;;;;13.20;99.90;;;;;;5115864;27;3860;-65
2022/10/23 09:05:18;;;;;;;;;;;13.20;99.90;;;;;;5127217;27;3122;-65
2022/10/23 09:07:48;;;;;;;;;;;13.30;99.90;;;;;;5127171;27;2147;-66
2022/10/23 09:10:15;;;;;;;;;;;13.30;99.90;;;;;;5118978;27;1210;-66
2022/10/23 09:12:41;;;;;;;;;;;13.40;99.90;;;;;;5124128;27;1075;-65
2022/10/23 09:15:21;;;;;;;;;;;13.50;99.90;;;;;;5127355;27;1301;-66
2022/10/23 09:17:48;;;;;;;;;;;13.60;99.90;;;;;;5126870;27;2865;-65
2022/10/23 09:20:21;;;;;;;;;;;13.70;99.90;;;;;;5121390;27;1346;-66
2022/10/23 09:22:48;;;;;;;;;;;13.80;99.90;;;;;;5117982;27;1933;-65
2022/10/23 09:25:20;;;;;;;;;;;13.90;99.90;;;;;;5126609;27;1297;-65
2022/10/23 09:27:51;;;;;;;;;;;14.00;99.90;;;;;;5129339;27;1296;-65
2022/10/23 09:30:41;;;;;;;;;;;14.10;99.90;;;;;;5128660;27;1289;-65
2022/10/23 09:33:17;;;;;;;;;;;14.20;99.90;;;;;;5125920;27;1106;-65
2022/10/23 09:35:53;;;;;;;;;;;14.40;99.90;;;;;;5123854;27;1344;-66
2022/10/23 09:38:24;;;;;;;;;;;14.50;99.90;;;;;;5124075;28;1231;-66
2022/10/23 09:40:50;;;;;;;;;;;14.60;99.90;;;;;;5128479;28;1312;-66
2022/10/23 09:43:17;;;;;;;;;;;14.70;99.90;;;;;;5128628;28;1995;-66
2022/10/23 09:45:43;;;;;;;;;;;14.90;99.90;;;;;;5127193;27;1225;-65
2022/10/23 09:48:15;;;;;;;;;;;15.00;99.90;;;;;;5106823;28;1317;-66
2022/10/23 09:50:46;;;;;;;;;;;15.10;99.90;;;;;;5125927;28;1398;-66
2022/10/23 09:53:14;;;;;;;;;;;15.40;99.90;;;;;;5127271;28;1057;-65
2022/10/23 09:55:40;;;;;;;;;;;15.60;99.90;;;;;;5126301;28;1382;-66
2022/10/23 09:58:18;;;;;;;;;;;15.90;99.90;;;;;;5129546;28;1219;-66
2022/10/23 10:00:45;;;;;;;;;;;16.30;99.90;;;;;;5126845;28;1358;-66
2022/10/23 10:03:19;;;;;;;;;;;16.90;99.90;;;;;;5110753;28;1989;-66
2022/10/23 10:05:59;;;;;;;;;;;17.30;99.90;;;;;;5127626;28;1306;-66
2022/10/23 10:08:33;;;;;;;;;;;17.70;99.90;;;;;;5127709;28;1381;-66
2022/10/23 10:11:00;;;;;;;;;;;17.90;99.90;;;;;;5129976;28;1135;-66
2022/10/23 10:13:29;;;;;;;;;;;17.90;99.90;;;;;;5129101;28;1154;-66
2022/10/23 10:15:57;;;;;;;;;;;18.00;99.90;;;;;;5128428;28;1623;-66
2022/10/23 10:18:27;;;;;;;;;;;18.00;99.90;;;;;;5129291;27;1139;-66
2022/10/23 10:20:56;;;;;;;;;;;18.00;99.90;;;;;;5129595;28;1070;-66
2022/10/23 10:23:22;;;;;;;;;;;18.00;99.90;;;;;;5129028;28;1979;-66
2022/10/23 10:25:54;;;;;;;;;;;17.90;99.90;;;;;;5129414;28;1178;-66
2022/10/23 10:28:26;;;;;;;;;;;18.00;99.90;;;;;;5128542;28;1257;-66
2022/10/23 10:31:05;;;;;;;;;;;18.00;99.90;;;;;;5119945;27;1123;-65
2022/10/23 10:33:34;;;;;;;;;;;18.00;99.90;;;;;;5111188;28;991;-65
2022/10/23 10:36:03;;;;;;;;;;;18.00;99.90;;;;;;5130649;27;1140;-66
2022/10/23 10:38:40;;;;;;;;;;;18.00;99.90;;;;;;5123624;27;1430;-66
2022/10/23 10:41:24;;;;;;;;;;;18.10;99.90;;;;;;5133144;27;1910;-66
2022/10/23 10:43:50;;;;;;;;;;;18.20;99.90;;;;;;5131374;27;1139;-66
2022/10/23 10:46:23;;;;;;;;;;;18.40;99.90;;;;;;5119707;27;1147;-66
2022/10/23 10:48:54;;;;;;;;;;;18.50;99.90;;;;;;5131840;27;1235;-66
2022/10/23 10:51:46;;;;;;;;;;;18.80;99.90;;;;;;5132303;27;1226;-66
2022/10/23 10:54:12;;;;;;;;;;;18.80;99.90;;;;;;5131099;27;1341;-66
2022/10/23 10:56:40;;;;;;;;;;;18.90;99.90;;;;;;5131480;27;1108;-66
2022/10/23 10:59:13;;;;;;;;;;;19.00;99.90;;;;;;5114200;27;1088;-66
2022/10/23 11:01:49;;;;;;;;;;;19.10;99.90;;;;;;5132835;27;1913;-66
2022/10/23 11:04:27;;;;;;;;;;;19.20;99.90;;;;;;5132226;27;1217;-66
2022/10/23 11:06:54;;;;;;;;;;;19.00;99.90;;;;;;5131645;27;1163;-66
2022/10/23 11:09:21;;;;;;;;;;;18.90;99.90;;;;;;5132707;27;1270;-66
2022/10/23 11:11:47;;;;;;;;;;;18.70;99.90;;;;;;5131506;27;1108;-66
2022/10/23 11:14:18;;;;;;;;;;;18.50;99.90;;;;;;5112653;27;1967;-66
2022/10/23 11:16:46;;;;;;;;;;;18.30;99.90;;;;;;5132332;27;1165;-67
2022/10/23 11:19:22;;;;;;;;;;;18.10;99.90;;;;;;5113786;27;1152;-67
2022/10/23 11:21:51;;;;;;;;;;;18.00;99.90;;;;;;5113441;27;1913;-66
2022/10/23 11:24:26;;;;;;;;;;;17.80;99.90;;;;;;5139621;27;1171;-66
2022/10/23 11:27:08;;;;;;;;;;;17.70;99.90;;;;;;5119190;27;1116;-66
2022/10/23 11:29:53;;;;;;;;;;;17.60;99.90;;;;;;5135768;27;1349;-66
2022/10/23 11:32:47;;;;;;;;;;;17.60;99.90;;;;;;5127070;27;1233;-66
2022/10/23 11:35:22;;;;;;;;;;;17.50;99.90;;;;;;5130818;27;1239;-67
2022/10/23 11:37:58;;;;;;;;;;;17.40;99.90;;;;;;5132312;27;1115;-67
2022/10/23 11:40:24;;;;;;;;;;;17.40;99.90;;;;;;5131538;27;1076;-66
2022/10/23 11:42:50;;;;;;;;;;;17.30;99.90;;;;;;5131281;27;2019;-66
2022/10/23 11:45:29;;;;;;;;;;;17.30;99.90;;;;;;5127519;27;1066;-66
2022/10/23 11:47:58;;;;;;;;;;;17.30;99.90;;;;;;5127231;27;1182;-67
2022/10/23 11:50:32;;;;;;;;;;;17.20;99.90;;;;;;5110443;28;1104;-66
2022/10/23 11:52:59;;;;;;;;;;;17.20;99.90;;;;;;5110694;28;1095;-67
2022/10/23 11:55:27;;;;;;;;;;;17.10;99.90;;;;;;5111394;28;1088;-67
2022/10/23 11:58:05;;;;;;;;;;;17.10;99.90;;;;;;5110305;28;1168;-67
2022/10/23 12:00:33;;;;;;;;;;;17.10;99.90;;;;;;5109399;28;1126;-67
2022/10/23 12:03:00;;;;;;;;;;;17.00;99.90;;;;;;5110551;28;1918;-66
2022/10/23 12:05:30;;;;;;;;;;;17.00;99.90;;;;;;5110480;28;1219;-67
2022/10/23 12:07:58;;;;;;;;;;;16.90;99.90;;;;;;5109935;28;1155;-67
2022/10/23 12:10:29;;;;;;;;;;;16.90;99.90;;;;;;5092573;28;1169;-67
2022/10/23 12:12:56;;;;;;;;;;;16.80;99.90;;;;;;5110574;28;1188;-67
2022/10/23 12:15:23;;;;;;;;;;;16.80;99.90;;;;;;5113462;27;1315;-67
2022/10/23 12:17:50;;;;;;;;;;;16.90;99.90;;;;;;5092204;28;1126;-66
2022/10/23 12:20:23;;;;;;;;;;;16.90;99.90;;;;;;5092602;28;1128;-67
2022/10/23 12:22:55;;;;;;;;;;;16.80;99.90;;;;;;5110215;28;1982;-67
2022/10/23 12:25:30;;;;;;;;;;;16.80;99.90;;;;;;5105719;28;1144;-66
2022/10/23 12:28:29;;;;;;;;;;;16.80;99.90;;;;;;5104009;28;1097;-67
2022/10/23 12:31:11;;;;;;;;;;;16.80;99.90;;;;;;5090668;28;1160;-66
2022/10/23 12:33:44;;;;;;;;;;;16.80;99.90;;;;;;5110032;28;1353;-66
2022/10/23 12:36:17;;;;;;;;;;;16.80;99.90;;;;;;5109289;28;1219;-66
2022/10/23 12:38:44;;;;;;;;;;;16.90;99.90;;;;;;5110500;28;1124;-66
2022/10/23 12:41:13;;;;;;;;;;;16.90;99.90;;;;;;5109996;28;1910;-67
2022/10/23 12:43:40;;;;;;;;;;;17.00;99.90;;;;;;5098925;28;1080;-67
2022/10/23 12:46:20;;;;;;;;;;;17.10;99.90;;;;;;5090670;28;1119;-67
2022/10/23 12:48:47;;;;;;;;;;;17.20;99.90;;;;;;5108919;27;1307;-67
2022/10/23 12:51:19;;;;;;;;;;;17.20;99.90;;;;;;5113498;27;3477;-67
2022/10/23 12:53:47;;;;;;;;;;;17.20;99.90;;;;;;5124870;27;1206;-67
2022/10/23 12:56:13;;;;;;;;;;;17.20;99.90;;;;;;5111644;27;1630;-67
2022/10/23 12:58:44;;;;;;;;;;;17.00;99.90;;;;;;5129621;27;1064;-67
2022/10/23 13:01:20;;;;;;;;;;;17.30;99.90;;;;;;5111711;27;1988;-67
2022/10/23 13:03:46;;;;;;;;;;;17.30;99.90;;;;;;5129859;27;1155;-67
2022/10/23 13:06:12;;;;;;;;;;;17.30;99.90;;;;;;5126960;27;1575;-66
2022/10/23 13:08:39;;;;;;;;;;;17.30;99.90;;;;;;5118833;27;1326;-67
2022/10/23 13:11:24;;;;;;;;;;;17.30;99.90;;;;;;5129126;27;1302;-67
2022/10/23 13:13:52;;;;;;;;;;;17.30;99.90;;;;;;5129200;27;1412;-67
2022/10/23 13:16:20;;;;;;;;;;;17.20;99.90;;;;;;5130542;27;1163;-66
2022/10/23 13:18:46;;;;;;;;;;;17.20;99.90;;;;;;5129114;27;1189;-66
2022/10/23 13:21:20;;;;;;;;;;;17.20;99.90;;;;;;5130400;27;1910;-66
2022/10/23 13:23:46;;;;;;;;;;;17.20;99.90;;;;;;5122434;27;1771;-67
2022/10/23 13:26:31;;;;;;;;;;;17.20;99.90;;;;;;5128844;27;1108;-67
2022/10/23 13:28:57;;;;;;;;;;;17.20;99.90;;;;;;5134255;27;1409;-67
2022/10/23 13:31:25;;;;;;;;;;;17.20;99.90;;;;;;5126881;27;1191;-67
2022/10/23 13:34:11;;;;;;;;;;;17.20;99.90;;;;;;5110988;27;1186;-67
2022/10/23 13:36:38;;;;;;;;;;;17.10;99.90;;;;;;5124417;27;1915;-67
2022/10/23 13:39:08;;;;;;;;;;;17.10;99.90;;;;;;5104262;28;1259;-67
2022/10/23 13:41:35;;;;;;;;;;;17.10;99.90;;;;;;5125940;28;1902;-67
2022/10/23 13:44:01;;;;;;;;;;;17.10;99.90;;;;;;5097544;28;2036;-67
2022/10/23 13:46:27;;;;;;;;;;;17.00;99.90;;;;;;5126534;28;1150;-67
2022/10/23 13:48:53;;;;;;;;;;;17.00;99.90;;;;;;5129173;28;1210;-67
2022/10/23 13:51:26;;;;;;;;;;;17.00;99.90;;;;;;5130058;28;1111;-67
2022/10/23 13:53:53;;;;;;;;;;;17.00;99.90;;;;;;5110526;28;1124;-66
2022/10/23 13:56:19;;;;;;;;;;;17.00;99.90;;;;;;5128068;28;1103;-67
2022/10/23 13:58:45;;;;;;;;;;;17.00;99.90;;;;;;5129855;28;1139;-67
2022/10/23 14:01:15;;;;;;;;;;;16.90;99.90;;;;;;5129140;28;1921;-67
2022/10/23 14:03:40;;;;;;;;;;;17.00;99.90;;;;;;5100185;28;1112;-67
2022/10/23 14:06:06;;;;;;;;;;;17.00;99.90;;;;;;5110664;28;1124;-67
2022/10/23 14:08:32;;;;;;;;;;;17.00;99.90;;;;;;5129578;27;1112;-67
2022/10/23 14:10:57;;;;;;;;;;;16.90;99.90;;;;;;5113408;27;1043;-67
2022/10/23 14:13:23;;;;;;;;;;;16.90;99.90;;;;;;5132829;27;1124;-67
2022/10/23 14:15:52;;;;;;;;;;;16.80;99.90;;;;;;5136576;27;1578;-67
2022/10/23 14:18:18;;;;;;;;;;;16.80;99.90;;;;;;5131681;27;1135;-67
2022/10/23 14:20:44;;;;;;;;;;;16.80;99.90;;;;;;5140316;27;2476;-67
2022/10/23 14:23:10;;;;;;;;;;;16.70;99.90;;;;;;5120471;27;3424;-67
2022/10/23 14:25:36;;;;;;;;;;;16.70;99.90;;;;;;5133139;27;1253;-67
2022/10/23 14:28:01;;;;;;;;;;;16.60;99.90;;;;;;5124869;27;3310;-67
2022/10/23 14:30:27;;;;;;;;;;;16.60;99.90;;;;;;5114018;27;1852;-67
2022/10/23 14:32:53;;;;;;;;;;;16.60;99.90;;;;;;5132998;27;1191;-67
2022/10/23 14:35:18;;;;;;;;;;;16.60;99.90;;;;;;5132424;27;1092;-67
2022/10/23 14:37:44;;;;;;;;;;;16.50;99.90;;;;;;5132111;27;1160;-67
2022/10/23 14:40:10;;;;;;;;;;;16.50;99.90;;;;;;5113940;27;3643;-67
2022/10/23 14:42:35;;;;;;;;;;;16.50;99.90;;;;;;5132205;27;1926;-67
2022/10/23 14:45:01;;;;;;;;;;;16.40;99.90;;;;;;5111068;27;1059;-66
2022/10/23 14:47:27;;;;;;;;;;;16.40;99.90;;;;;;5134943;27;1392;-66